Strona główna
METAR-TAF:

METAR-TAF

Lotnisko :

Port lotniczy Tarakan-Juwata

Tarakan, Indonezja

Szerokość geograficzna: 03-19-36N, Długość geograficzna: 117-33-56E, wysokość: 6 m

Aktualna obserwacja pogody

Raport powstał 22 godziny i 46 minut temu, godzina 00:00 UTC
Wiatr 6 kt od północ
Temperatura 27°C
Wilgotność 79%
Ciśnienie 1014 hPa
Widzialność 10 km lub więcej
Brak chmur poniżej 1500 m i brak chmur cumulonimbus

METAR: WAQQ 230000Z 36006KT CAVOK 27/23 Q1014 NOSIG

czas: 05:46 (22:46 UTC)

Prognoza

Raport powstał 5 godziny i 46 minut temu, godzina 17:00 UTC
Prognoza ważna od 23 godzina 18 UTC do 24 godzina 06 UTC
Wiatr 5 kt od północny wschód
Widzialność: 8000 m
Rozproszone chmury na wysokości 1500 ft
Stopniowe zmiany
od 24 godzina 01 UTC do 24 godzina 03 UTC
Wiatr 10 kt od północny wschód

TAF: WAQQ 231700Z 2318/2406 05005KT 8000 SCT015 BECMG 2401/2403 04010KT

Obserwacja i prognoza pogody dla ponad 4000 lotnisk (raport METAR i TAF).

Dostępne stacje oznaczono żółtymi i czerwonymi punktami na mapie.

Najedź kursorem aby zobaczyć nazwę stacji.

Kliknij aby zobaczyć obserwacje i prognozy pogody.

Aby zmienić mapę: kliknij na zielony przycisk z czarnym krzyżykiem, aby powiększyć; na zielony przycisk z myślnikiem, aby pomniejszyć; na zielone strzałki, aby przejść do map sąsiednich.


METAR-TAF: